createdAt,value
2018-06-25T00:00:09.114Z,1014.05
2018-06-25T00:01:09.081Z,1014.04
2018-06-25T00:02:09.058Z,1014.07
2018-06-25T00:03:09.033Z,1014.04
2018-06-25T00:04:08.993Z,1014.08
2018-06-25T00:05:08.948Z,1014.10
2018-06-25T00:06:08.929Z,1014.04
2018-06-25T00:07:08.882Z,1014.01
2018-06-25T00:08:08.863Z,1014.03
2018-06-25T00:09:08.811Z,1014.04
2018-06-25T00:10:08.782Z,1014.01
2018-06-25T00:11:08.744Z,1014.05
2018-06-25T00:12:08.758Z,1014.05
2018-06-25T00:13:08.728Z,1013.95
2018-06-25T00:14:08.709Z,1014.04
2018-06-25T00:15:08.609Z,1014.02
2018-06-25T00:16:08.589Z,1014.03
2018-06-25T00:17:08.561Z,1014.13
2018-06-25T00:18:08.515Z,1014.13
2018-06-25T00:19:08.492Z,1014.14
2018-06-25T00:20:08.445Z,1014.10
2018-06-25T00:21:08.403Z,1014.12
2018-06-25T00:22:08.381Z,1014.10
2018-06-25T00:23:08.355Z,1014.13
2018-06-25T00:24:08.327Z,1014.10
2018-06-25T00:25:08.273Z,1014.12
2018-06-25T00:26:08.254Z,1014.17
2018-06-25T00:27:08.258Z,1014.16
2018-06-25T00:28:08.189Z,1014.15
2018-06-25T00:29:08.175Z,1014.09
2018-06-25T00:30:08.108Z,1014.08
2018-06-25T00:31:08.088Z,1014.14
2018-06-25T00:32:08.091Z,1014.10
2018-06-25T00:33:08.008Z,1014.19
2018-06-25T00:34:08.006Z,1014.19
2018-06-25T00:35:07.939Z,1014.11
2018-06-25T00:36:07.974Z,1014.07
2018-06-25T00:37:07.878Z,1014.10
2018-06-25T00:38:07.875Z,1014.08
2018-06-25T00:39:07.835Z,1014.03
2018-06-25T00:40:07.773Z,1014.08
2018-06-25T00:41:07.742Z,1014.06
2018-06-25T00:42:07.702Z,1014.08
2018-06-25T00:43:07.678Z,1014.10
2018-06-25T00:44:07.648Z,1014.05
2018-06-25T00:45:07.606Z,1014.09
2018-06-25T00:46:07.603Z,1014.03
2018-06-25T00:47:07.563Z,1013.97
2018-06-25T00:48:07.507Z,1014.00
2018-06-25T00:49:07.464Z,1014.02
2018-06-25T00:50:07.435Z,1014.05
2018-06-25T00:51:07.406Z,1014.06
2018-06-25T00:52:07.371Z,1014.02
2018-06-25T00:53:07.335Z,1014.04
2018-06-25T00:54:07.304Z,1014.03
2018-06-25T00:55:07.329Z,1014.02
2018-06-25T00:56:07.264Z,1014.08
2018-06-25T00:57:07.224Z,1014.06
2018-06-25T00:58:07.172Z,1014.14
2018-06-25T00:59:07.135Z,1014.22
2018-06-25T01:00:07.114Z,1014.18
2018-06-25T01:01:07.069Z,1014.13
2018-06-25T01:02:07.047Z,1014.12
2018-06-25T01:03:07.003Z,1014.09
2018-06-25T01:04:06.971Z,1014.05
2018-06-25T01:05:06.935Z,1014.05
2018-06-25T01:06:06.977Z,1014.08
2018-06-25T01:07:06.862Z,1014.08
2018-06-25T01:08:06.838Z,1014.07
2018-06-25T01:09:06.816Z,1014.08
2018-06-25T01:10:06.773Z,1014.12
2018-06-25T01:11:06.771Z,1014.09
2018-06-25T01:12:06.698Z,1014.16
2018-06-25T01:13:06.666Z,1014.14
2018-06-25T01:14:06.656Z,1014.20
2018-06-25T01:15:06.589Z,1014.23
2018-06-25T01:16:06.556Z,1014.20
2018-06-25T01:17:06.539Z,1014.23
2018-06-25T01:18:06.505Z,1014.18
2018-06-25T01:19:06.487Z,1014.12
2018-06-25T01:20:06.455Z,1014.15
2018-06-25T01:21:06.392Z,1014.13
2018-06-25T01:22:06.376Z,1014.04
2018-06-25T01:23:06.335Z,1013.92
2018-06-25T01:24:06.324Z,1014.07
2018-06-25T01:25:06.257Z,1014.07
2018-06-25T01:26:06.236Z,1013.99
2018-06-25T01:27:06.211Z,1014.11
2018-06-25T01:28:06.155Z,1014.08
2018-06-25T01:29:06.121Z,1014.12
2018-06-25T01:30:06.099Z,1014.14
2018-06-25T01:31:06.086Z,1014.00
2018-06-25T01:32:06.019Z,1014.13
2018-06-25T01:33:05.986Z,1014.14
2018-06-25T01:34:05.975Z,1014.22
2018-06-25T01:35:05.923Z,1014.22
2018-06-25T01:36:05.895Z,1014.24
2018-06-25T01:37:05.859Z,1014.21
2018-06-25T01:38:05.819Z,1014.26
2018-06-25T01:39:05.800Z,1014.23
2018-06-25T01:40:05.757Z,1014.24
2018-06-25T01:41:05.720Z,1014.24
2018-06-25T01:42:05.690Z,1014.17
2018-06-25T01:43:05.681Z,1014.15
2018-06-25T01:44:05.640Z,1014.21
2018-06-25T01:45:05.586Z,1014.14
2018-06-25T01:46:05.569Z,1014.17
2018-06-25T01:47:05.526Z,1014.13
2018-06-25T01:48:05.515Z,1014.16
2018-06-25T01:49:05.457Z,1014.13
2018-06-25T01:50:05.412Z,1014.10
2018-06-25T01:51:05.393Z,1014.18
2018-06-25T01:52:05.380Z,1014.19
2018-06-25T01:53:05.354Z,1014.18
2018-06-25T01:54:05.275Z,1014.18
2018-06-25T01:55:05.273Z,1014.20
2018-06-25T01:56:05.223Z,1014.11
2018-06-25T01:57:05.194Z,1014.17
2018-06-25T01:58:05.171Z,1014.16
2018-06-25T01:59:05.127Z,1014.15
2018-06-25T02:00:05.078Z,1014.11
2018-06-25T02:01:05.041Z,1014.19
2018-06-25T02:02:05.047Z,1014.17
2018-06-25T02:03:05.037Z,1014.20
2018-06-25T02:04:04.954Z,1014.17
2018-06-25T02:05:04.950Z,1014.18
2018-06-25T02:06:04.898Z,1014.18
2018-06-25T02:07:04.837Z,1014.21
2018-06-25T02:08:04.827Z,1014.20
2018-06-25T02:09:04.779Z,1014.16
2018-06-25T02:10:04.751Z,1014.21
2018-06-25T02:11:04.728Z,1014.18
2018-06-25T02:12:04.737Z,1014.17
2018-06-25T02:13:04.672Z,1014.18
2018-06-25T02:14:04.616Z,1014.23
2018-06-25T02:15:04.586Z,1014.21
2018-06-25T02:16:04.566Z,1014.24
2018-06-25T02:17:04.519Z,1014.22
2018-06-25T02:18:04.473Z,1014.15
2018-06-25T02:19:05.133Z,1014.11
2018-06-25T02:20:05.162Z,1014.08
2018-06-25T02:21:05.132Z,1014.05
2018-06-25T02:22:04.372Z,1014.08
2018-06-25T02:23:04.304Z,1014.06
2018-06-25T02:24:04.274Z,1014.10
2018-06-25T02:25:04.239Z,1014.13
2018-06-25T02:26:04.208Z,1014.11
2018-06-25T02:27:04.173Z,1014.13
2018-06-25T02:28:04.137Z,1014.15
2018-06-25T02:29:04.105Z,1014.18
2018-06-25T02:30:04.077Z,1014.20
2018-06-25T02:31:04.035Z,1014.21
2018-06-25T02:32:04.023Z,1014.09
2018-06-25T02:33:04.057Z,1014.18
2018-06-25T02:34:03.948Z,1014.19
2018-06-25T02:35:03.907Z,1014.21
2018-06-25T02:36:03.868Z,1014.14
2018-06-25T02:37:03.832Z,1014.24
2018-06-25T02:38:03.798Z,1014.16
2018-06-25T02:39:03.774Z,1014.23
2018-06-25T02:40:03.735Z,1014.20
2018-06-25T02:41:03.703Z,1014.19
2018-06-25T02:42:03.692Z,1014.27
2018-06-25T02:43:03.633Z,1014.15
2018-06-25T02:44:03.599Z,1014.20
2018-06-25T02:45:03.568Z,1014.18
2018-06-25T02:46:03.534Z,1014.26
2018-06-25T02:47:03.516Z,1014.23
2018-06-25T02:48:03.500Z,1014.19
2018-06-25T02:49:03.431Z,1014.24
2018-06-25T02:50:03.397Z,1014.19
2018-06-25T02:51:03.365Z,1014.15
2018-06-25T02:52:03.330Z,1014.11
2018-06-25T02:53:03.298Z,1014.17
2018-06-25T02:54:03.262Z,1014.24
2018-06-25T02:55:03.229Z,1014.22
2018-06-25T02:56:03.194Z,1014.23
2018-06-25T02:57:03.175Z,1014.20
2018-06-25T02:58:03.127Z,1014.31
2018-06-25T02:59:03.095Z,1014.29
2018-06-25T03:00:03.062Z,1014.20
2018-06-25T03:01:03.028Z,1014.15
2018-06-25T03:02:02.999Z,1014.22
2018-06-25T03:03:02.957Z,1014.25
2018-06-25T03:04:02.927Z,1014.29
2018-06-25T03:05:02.921Z,1014.26
2018-06-25T03:06:02.857Z,1014.20
2018-06-25T03:07:02.845Z,1014.29
2018-06-25T03:08:02.792Z,1014.30
2018-06-25T03:09:02.759Z,1014.34
2018-06-25T03:10:02.726Z,1014.36
2018-06-25T03:11:02.691Z,1014.32
2018-06-25T03:12:02.657Z,1014.31
2018-06-25T03:13:02.622Z,1014.31
2018-06-25T03:14:02.591Z,1014.27
2018-06-25T03:15:02.556Z,1014.26
2018-06-25T03:16:02.522Z,1014.23
2018-06-25T03:17:02.487Z,1014.27
2018-06-25T03:18:02.456Z,1014.23
2018-06-25T03:19:02.416Z,1014.22
2018-06-25T03:20:02.386Z,1014.19
2018-06-25T03:21:02.356Z,1014.27
2018-06-25T03:22:02.319Z,1014.25
2018-06-25T03:23:02.285Z,1014.27
2018-06-25T03:24:02.246Z,1014.22
2018-06-25T03:25:02.219Z,1014.20
2018-06-25T03:26:02.184Z,1014.29
2018-06-25T03:27:02.151Z,1014.30
2018-06-25T03:28:02.118Z,1014.30
2018-06-25T03:29:02.086Z,1014.31
2018-06-25T03:30:02.050Z,1014.27
2018-06-25T03:31:02.016Z,1014.23
2018-06-25T03:32:01.985Z,1014.33
2018-06-25T03:33:01.950Z,1014.37
2018-06-25T03:34:01.917Z,1014.38
2018-06-25T03:35:01.879Z,1014.29
2018-06-25T03:36:01.851Z,1014.31
2018-06-25T03:37:01.815Z,1014.39
2018-06-25T03:38:01.780Z,1014.31
2018-06-25T03:39:01.750Z,1014.35
2018-06-25T03:40:01.737Z,1014.33
2018-06-25T03:41:01.682Z,1014.31
2018-06-25T03:42:01.644Z,1014.31
2018-06-25T03:43:01.612Z,1014.32
2018-06-25T03:44:01.581Z,1014.38
2018-06-25T03:45:01.545Z,1014.34
2018-06-25T03:46:01.511Z,1014.27
2018-06-25T03:47:01.481Z,1014.34
2018-06-25T03:48:01.445Z,1014.34
2018-06-25T03:49:01.406Z,1014.40
2018-06-25T03:50:01.378Z,1014.42
2018-06-25T03:51:01.345Z,1014.40
2018-06-25T03:52:01.306Z,1014.47
2018-06-25T03:53:01.277Z,1014.46
2018-06-25T03:54:01.260Z,1014.44
2018-06-25T03:55:01.223Z,1014.46
2018-06-25T03:56:01.178Z,1014.50
2018-06-25T03:57:01.139Z,1014.52
2018-06-25T03:58:01.119Z,1014.60
2018-06-25T03:59:01.073Z,1014.55
2018-06-25T04:00:01.046Z,1014.55
2018-06-25T04:01:01.042Z,1014.52
2018-06-25T04:02:00.976Z,1014.55
2018-06-25T04:03:00.939Z,1014.58
2018-06-25T04:04:00.909Z,1014.52
2018-06-25T04:05:00.872Z,1014.49
2018-06-25T04:06:00.839Z,1014.50
2018-06-25T04:07:00.807Z,1014.50
2018-06-25T04:08:00.787Z,1014.54
2018-06-25T04:09:00.741Z,1014.49
2018-06-25T04:10:00.709Z,1014.56
2018-06-25T04:11:00.682Z,1014.59
2018-06-25T04:12:00.683Z,1014.52
2018-06-25T04:13:00.603Z,1014.61
2018-06-25T04:14:00.570Z,1014.56
2018-06-25T04:15:00.537Z,1014.59
2018-06-25T04:16:00.502Z,1014.59
2018-06-25T04:17:00.499Z,1014.61
2018-06-25T04:18:00.432Z,1014.59
2018-06-25T04:19:00.404Z,1014.64
2018-06-25T04:20:00.367Z,1014.58
2018-06-25T04:21:00.337Z,1014.64
2018-06-25T04:22:00.301Z,1014.69
2018-06-25T04:23:00.266Z,1014.72
2018-06-25T04:24:00.251Z,1014.73
2018-06-25T04:25:00.199Z,1014.77
2018-06-25T04:26:00.179Z,1014.75
2018-06-25T04:27:00.136Z,1014.78
2018-06-25T04:28:00.103Z,1014.68
2018-06-25T04:29:00.068Z,1014.70
2018-06-25T04:30:00.046Z,1014.74
2018-06-25T04:31:00.005Z,1014.73
2018-06-25T04:31:59.966Z,1014.77
2018-06-25T04:32:59.933Z,1014.72
2018-06-25T04:33:59.898Z,1014.68
2018-06-25T04:34:59.867Z,1014.75
2018-06-25T04:35:59.832Z,1014.78
2018-06-25T04:36:59.801Z,1014.85
2018-06-25T04:37:59.780Z,1014.88
2018-06-25T04:38:59.732Z,1014.88
2018-06-25T04:39:59.692Z,1014.92
2018-06-25T04:40:59.662Z,1014.88
2018-06-25T04:41:59.628Z,1014.87
2018-06-25T04:42:59.597Z,1014.88
2018-06-25T04:43:59.564Z,1014.86
2018-06-25T04:44:59.523Z,1014.84
2018-06-25T04:45:59.509Z,1014.82
2018-06-25T04:46:59.463Z,1014.84
2018-06-25T04:47:59.439Z,1014.87
2018-06-25T04:48:59.397Z,1014.83
2018-06-25T04:49:59.362Z,1014.82
2018-06-25T04:50:59.327Z,1014.82
2018-06-25T04:51:59.293Z,1014.87
2018-06-25T04:52:59.262Z,1014.85
2018-06-25T04:53:59.227Z,1014.87
2018-06-25T04:54:59.194Z,1014.86
2018-06-25T04:55:59.157Z,1014.91
2018-06-25T04:56:59.156Z,1014.87
2018-06-25T04:57:59.103Z,1014.80
2018-06-25T04:58:59.060Z,1014.90
2018-06-25T04:59:59.030Z,1014.88
2018-06-25T05:00:59.075Z,1014.89
2018-06-25T05:01:58.963Z,1014.87
2018-06-25T05:02:58.924Z,1014.91
2018-06-25T05:03:58.894Z,1014.81
2018-06-25T05:04:58.860Z,1014.89
2018-06-25T05:05:58.819Z,1014.90
2018-06-25T05:06:58.794Z,1014.93
2018-06-25T05:07:58.755Z,1014.88
2018-06-25T05:08:58.734Z,1014.94
2018-06-25T05:09:58.705Z,1014.93
2018-06-25T05:10:58.669Z,1014.91
2018-06-25T05:11:58.655Z,1014.87
2018-06-25T05:12:58.593Z,1014.86
2018-06-25T05:13:58.583Z,1014.88
2018-06-25T05:14:58.527Z,1014.91
2018-06-25T05:15:58.490Z,1014.90
2018-06-25T05:16:58.460Z,1014.95
2018-06-25T05:17:58.432Z,1014.89
2018-06-25T05:18:58.397Z,1014.96
2018-06-25T05:19:58.360Z,1014.97
2018-06-25T05:20:58.326Z,1014.95
2018-06-25T05:21:58.296Z,1014.94
2018-06-25T05:22:58.260Z,1014.96
2018-06-25T05:23:58.228Z,1014.97
2018-06-25T05:24:58.198Z,1014.92
2018-06-25T05:25:58.159Z,1014.97
2018-06-25T05:26:58.127Z,1014.91
2018-06-25T05:27:58.096Z,1014.93
2018-06-25T05:28:58.066Z,1014.99
2018-06-25T05:29:58.029Z,1014.98
2018-06-25T05:30:57.994Z,1014.98
2018-06-25T05:31:57.963Z,1014.96
2018-06-25T05:32:57.935Z,1014.92
2018-06-25T05:33:57.894Z,1014.89
2018-06-25T05:34:57.864Z,1014.91
2018-06-25T05:35:57.834Z,1014.89
2018-06-25T05:36:57.809Z,1014.91
2018-06-25T05:37:57.764Z,1014.94
2018-06-25T05:38:57.733Z,1014.97
2018-06-25T05:39:57.704Z,1014.98
2018-06-25T05:40:57.669Z,1014.95
2018-06-25T05:41:57.632Z,1015.00
2018-06-25T05:42:57.602Z,1014.97
2018-06-25T05:43:57.572Z,1015.02
2018-06-25T05:44:57.537Z,1014.97
2018-06-25T05:45:57.503Z,1014.99
2018-06-25T05:46:57.471Z,1015.03
2018-06-25T05:47:57.437Z,1015.08
2018-06-25T05:48:57.438Z,1015.05
2018-06-25T05:49:57.370Z,1015.11
2018-06-25T05:50:57.339Z,1015.14
2018-06-25T05:51:57.305Z,1015.08
2018-06-25T05:52:57.274Z,1015.12
2018-06-25T05:53:57.239Z,1015.10
2018-06-25T05:54:58.167Z,1015.08
2018-06-25T05:55:57.173Z,1015.14
2018-06-25T05:56:57.668Z,1015.15
2018-06-25T05:57:57.108Z,1015.21
2018-06-25T05:58:57.099Z,1015.26
2018-06-25T05:59:57.040Z,1015.25
2018-06-25T06:00:57.010Z,1015.26
2018-06-25T06:01:56.972Z,1015.30
2018-06-25T06:02:56.943Z,1015.27
2018-06-25T06:03:56.914Z,1015.28
2018-06-25T06:04:56.892Z,1015.29
2018-06-25T06:05:56.860Z,1015.27
2018-06-25T06:06:56.806Z,1015.27
2018-06-25T06:07:56.778Z,1015.22
2018-06-25T06:08:56.746Z,1015.23
2018-06-25T06:09:56.721Z,1015.25
2018-06-25T06:10:56.676Z,1015.22
2018-06-25T06:11:56.644Z,1015.24
2018-06-25T06:12:56.612Z,1015.29
2018-06-25T06:13:56.585Z,1015.28
2018-06-25T06:14:56.547Z,1015.27
2018-06-25T06:15:56.514Z,1015.28
2018-06-25T06:16:56.474Z,1015.33
2018-06-25T06:17:56.444Z,1015.31
2018-06-25T06:18:56.418Z,1015.30
2018-06-25T06:19:56.401Z,1015.32
2018-06-25T06:20:56.351Z,1015.34
2018-06-25T06:21:56.310Z,1015.36
2018-06-25T06:22:56.283Z,1015.39
2018-06-25T06:23:56.250Z,1015.38
2018-06-25T06:24:56.221Z,1015.40
2018-06-25T06:25:56.184Z,1015.34
2018-06-25T06:26:56.152Z,1015.38
2018-06-25T06:27:56.121Z,1015.38
2018-06-25T06:28:56.083Z,1015.38
2018-06-25T06:29:56.054Z,1015.36
2018-06-25T06:30:56.042Z,1015.45
2018-06-25T06:31:55.990Z,1015.48
2018-06-25T06:32:55.953Z,1015.45
2018-06-25T06:33:55.916Z,1015.50
2018-06-25T06:34:55.886Z,1015.46
2018-06-25T06:35:55.853Z,1015.48
2018-06-25T06:36:55.822Z,1015.48
2018-06-25T06:37:55.787Z,1015.50
2018-06-25T06:38:55.754Z,1015.49
2018-06-25T06:39:55.736Z,1015.50
2018-06-25T06:40:55.706Z,1015.49
2018-06-25T06:41:55.659Z,1015.48
2018-06-25T06:42:55.620Z,1015.46
2018-06-25T06:43:56.997Z,1015.50
2018-06-25T06:44:55.557Z,1015.55
2018-06-25T06:45:55.533Z,1015.55
2018-06-25T06:46:55.492Z,1015.57
2018-06-25T06:47:55.459Z,1015.54
2018-06-25T06:48:55.488Z,1015.54
2018-06-25T06:49:55.394Z,1015.53
2018-06-25T06:50:55.360Z,1015.57
2018-06-25T06:51:55.330Z,1015.61
2018-06-25T06:52:55.296Z,1015.64
2018-06-25T06:53:55.260Z,1015.67
2018-06-25T06:54:55.233Z,1015.67
2018-06-25T06:55:55.225Z,1015.70
2018-06-25T06:56:55.182Z,1015.67
2018-06-25T06:57:55.131Z,1015.67
2018-06-25T06:58:55.096Z,1015.68
2018-06-25T06:59:55.069Z,1015.77
2018-06-25T07:00:55.033Z,1015.70
2018-06-25T07:01:55.026Z,1015.73
2018-06-25T07:02:54.967Z,1015.73
2018-06-25T07:03:54.936Z,1015.70
2018-06-25T07:04:54.926Z,1015.70
2018-06-25T07:05:54.869Z,1015.70
2018-06-25T07:06:54.865Z,1015.81
2018-06-25T07:07:54.806Z,1015.78
2018-06-25T07:08:54.776Z,1015.79
2018-06-25T07:09:54.740Z,1015.79
2018-06-25T07:10:54.708Z,1015.80
2018-06-25T07:11:54.673Z,1015.78
2018-06-25T07:12:54.665Z,1015.77
2018-06-25T07:13:54.607Z,1015.68
2018-06-25T07:14:54.578Z,1015.75
2018-06-25T07:15:54.546Z,1015.76
2018-06-25T07:16:54.531Z,1015.71
2018-06-25T07:17:54.481Z,1015.80
2018-06-25T07:18:54.446Z,1015.78
2018-06-25T07:19:54.416Z,1015.76
2018-06-25T07:20:54.380Z,1015.77
2018-06-25T07:21:54.351Z,1015.75
2018-06-25T07:22:54.318Z,1015.76
2018-06-25T07:23:54.286Z,1015.75
2018-06-25T07:24:54.256Z,1015.79
2018-06-25T07:25:54.221Z,1015.75
2018-06-25T07:26:54.197Z,1015.75
2018-06-25T07:27:54.182Z,1015.72
2018-06-25T07:28:54.179Z,1015.71
2018-06-25T07:29:54.093Z,1015.71
2018-06-25T07:30:54.063Z,1015.69
2018-06-25T07:31:54.029Z,1015.74
2018-06-25T07:32:53.997Z,1015.75
2018-06-25T07:33:53.964Z,1015.80
2018-06-25T07:34:53.932Z,1015.76
2018-06-25T07:35:53.901Z,1015.82
2018-06-25T07:36:53.870Z,1015.77
2018-06-25T07:37:53.850Z,1015.82
2018-06-25T07:38:53.805Z,1015.78
2018-06-25T07:39:53.772Z,1015.76
2018-06-25T07:40:53.741Z,1015.80
2018-06-25T07:41:53.707Z,1015.83
2018-06-25T07:42:53.697Z,1015.80
2018-06-25T07:43:53.649Z,1015.84
2018-06-25T07:44:53.610Z,1015.81
2018-06-25T07:45:53.589Z,1015.85
2018-06-25T07:46:53.546Z,1015.83
2018-06-25T07:47:53.516Z,1015.86
2018-06-25T07:48:53.489Z,1015.86
2018-06-25T07:49:53.452Z,1015.87
2018-06-25T07:50:53.419Z,1015.81
2018-06-25T07:51:53.387Z,1015.89
2018-06-25T07:52:53.404Z,1015.88
2018-06-25T07:53:53.339Z,1015.84
2018-06-25T07:54:53.291Z,1015.92
2018-06-25T07:55:53.257Z,1015.85
2018-06-25T07:56:53.230Z,1015.92
2018-06-25T07:57:53.193Z,1015.94
2018-06-25T07:58:53.162Z,1015.93
2018-06-25T07:59:53.132Z,1015.88
2018-06-25T08:00:53.099Z,1015.93
2018-06-25T08:01:53.067Z,1015.90
2018-06-25T08:02:53.060Z,1015.94
2018-06-25T08:03:53.003Z,1015.94
2018-06-25T08:04:52.971Z,1015.93
2018-06-25T08:05:52.938Z,1015.95
2018-06-25T08:06:52.910Z,1015.96
2018-06-25T08:07:52.873Z,1015.96
2018-06-25T08:08:52.840Z,1015.99
2018-06-25T08:09:52.851Z,1015.93
2018-06-25T08:10:52.775Z,1016.01
2018-06-25T08:11:52.750Z,1015.99
2018-06-25T08:12:52.711Z,1016.00
2018-06-25T08:13:52.680Z,1016.01
2018-06-25T08:14:52.666Z,1015.94
2018-06-25T08:15:52.617Z,1015.91
2018-06-25T08:16:52.584Z,1016.02
2018-06-25T08:17:52.556Z,1015.99
2018-06-25T08:18:52.521Z,1016.01
2018-06-25T08:19:52.486Z,1016.01
2018-06-25T08:20:52.454Z,1015.97
2018-06-25T08:21:52.425Z,1015.97
2018-06-25T08:22:52.403Z,1016.07
2018-06-25T08:23:52.376Z,1016.02
2018-06-25T08:24:52.327Z,1015.99
2018-06-25T08:25:52.689Z,1015.97
2018-06-25T08:26:52.265Z,1016.02
2018-06-25T08:27:52.255Z,1016.02
2018-06-25T08:28:52.201Z,1016.06
2018-06-25T08:29:52.231Z,1016.06
2018-06-25T08:30:52.139Z,1016.08
2018-06-25T08:31:52.105Z,1016.06
2018-06-25T08:32:52.073Z,1016.04
2018-06-25T08:33:52.128Z,1016.11
2018-06-25T08:34:52.012Z,1016.09
2018-06-25T08:35:51.981Z,1016.03
2018-06-25T08:36:51.945Z,1016.03
2018-06-25T08:37:51.909Z,1016.11
2018-06-25T08:38:51.880Z,1016.15
2018-06-25T08:39:51.849Z,1016.17
2018-06-25T08:40:51.819Z,1016.12
2018-06-25T08:41:51.786Z,1016.12
2018-06-25T08:42:51.753Z,1016.18
2018-06-25T08:43:51.739Z,1016.18
2018-06-25T08:44:51.687Z,1016.26
2018-06-25T08:45:51.666Z,1016.25
2018-06-25T08:46:51.627Z,1016.25
2018-06-25T08:47:51.592Z,1016.20
2018-06-25T08:48:51.580Z,1016.25
2018-06-25T08:49:51.527Z,1016.23
2018-06-25T08:50:51.499Z,1016.25
2018-06-25T08:51:51.491Z,1016.26
2018-06-25T08:52:51.438Z,1016.31
2018-06-25T08:53:51.408Z,1016.29
2018-06-25T08:54:51.373Z,1016.27
2018-06-25T08:55:51.339Z,1016.31
2018-06-25T08:56:51.357Z,1016.28
2018-06-25T08:57:51.276Z,1016.27
2018-06-25T08:58:51.244Z,1016.34
2018-06-25T08:59:51.212Z,1016.35
2018-06-25T09:00:51.181Z,1016.27
2018-06-25T09:01:51.152Z,1016.34
2018-06-25T09:02:51.121Z,1016.31
2018-06-25T09:03:51.091Z,1016.31
2018-06-25T09:04:51.066Z,1016.24
2018-06-25T09:05:51.024Z,1016.26
2018-06-25T09:06:50.995Z,1016.27
2018-06-25T09:07:50.962Z,1016.29
2018-06-25T09:08:50.932Z,1016.24
2018-06-25T09:09:50.946Z,1016.29
2018-06-25T09:10:50.869Z,1016.35
2018-06-25T09:11:50.841Z,1016.33
2018-06-25T09:12:50.811Z,1016.32
2018-06-25T09:13:50.774Z,1016.35
2018-06-25T09:14:50.738Z,1016.32
2018-06-25T09:15:50.715Z,1016.36
2018-06-25T09:16:50.682Z,1016.38
2018-06-25T09:17:50.649Z,1016.37
2018-06-25T09:18:50.619Z,1016.35
2018-06-25T09:19:50.590Z,1016.38
2018-06-25T09:20:50.559Z,1016.32
2018-06-25T09:21:50.547Z,1016.40
2018-06-25T09:22:50.506Z,1016.43
2018-06-25T09:23:50.477Z,1016.41
2018-06-25T09:24:50.434Z,1016.46
2018-06-25T09:25:50.402Z,1016.39
2018-06-25T09:26:50.368Z,1016.48
2018-06-25T09:27:50.372Z,1016.49
2018-06-25T09:28:50.307Z,1016.48
2018-06-25T09:29:50.275Z,1016.48
2018-06-25T09:30:50.243Z,1016.47
2018-06-25T09:31:50.215Z,1016.48
2018-06-25T09:32:50.183Z,1016.50
2018-06-25T09:33:50.146Z,1016.46
2018-06-25T09:34:50.720Z,1016.53
2018-06-25T09:35:50.088Z,1016.55
2018-06-25T09:36:50.723Z,1016.46
2018-06-25T09:37:50.054Z,1016.50
2018-06-25T09:38:49.994Z,1016.44
2018-06-25T09:39:49.985Z,1016.48
2018-06-25T09:40:49.942Z,1016.45
2018-06-25T09:41:49.962Z,1016.45
2018-06-25T09:42:49.864Z,1016.45
2018-06-25T09:43:49.837Z,1016.43
2018-06-25T09:44:49.807Z,1016.39
2018-06-25T09:45:49.774Z,1016.41
2018-06-25T09:46:49.760Z,1016.41
2018-06-25T09:47:49.711Z,1016.44
2018-06-25T09:48:49.681Z,1016.47
2018-06-25T09:49:49.649Z,1016.49
2018-06-25T09:50:49.614Z,1016.47
2018-06-25T09:51:49.577Z,1016.48
2018-06-25T09:52:49.553Z,1016.46
2018-06-25T09:53:49.519Z,1016.40
2018-06-25T09:54:49.555Z,1016.43
2018-06-25T09:55:49.457Z,1016.46
2018-06-25T09:56:49.430Z,1016.47
2018-06-25T09:57:49.395Z,1016.49
2018-06-25T09:58:49.366Z,1016.47
2018-06-25T09:59:49.333Z,1016.44
2018-06-25T10:00:49.302Z,1016.42
2018-06-25T10:01:49.269Z,1016.47
2018-06-25T10:02:49.241Z,1016.44
2018-06-25T10:03:49.221Z,1016.47
2018-06-25T10:04:49.178Z,1016.47
2018-06-25T10:05:49.140Z,1016.49
2018-06-25T10:06:49.126Z,1016.53
2018-06-25T10:07:49.084Z,1016.43
2018-06-25T10:08:49.052Z,1016.50
2018-06-25T10:09:49.023Z,1016.47
2018-06-25T10:10:48.993Z,1016.46
2018-06-25T10:11:48.961Z,1016.50
2018-06-25T10:12:48.930Z,1016.43
2018-06-25T10:13:48.896Z,1016.44
2018-06-25T10:14:48.871Z,1016.46
2018-06-25T10:15:48.844Z,1016.48
2018-06-25T10:16:48.805Z,1016.42
2018-06-25T10:17:48.776Z,1016.47
2018-06-25T10:18:48.741Z,1016.45
2018-06-25T10:19:48.715Z,1016.43
2018-06-25T10:20:48.685Z,1016.45
2018-06-25T10:21:48.651Z,1016.48
2018-06-25T10:22:48.621Z,1016.47
2018-06-25T10:23:48.597Z,1016.45
2018-06-25T10:24:48.561Z,1016.50
2018-06-25T10:25:48.530Z,1016.51
2018-06-25T10:26:48.502Z,1016.48
2018-06-25T10:27:48.470Z,1016.48
2018-06-25T10:28:48.440Z,1016.46
2018-06-25T10:29:48.411Z,1016.51
2018-06-25T10:30:48.380Z,1016.52
2018-06-25T10:31:48.349Z,1016.57
2018-06-25T10:32:48.320Z,1016.56
2018-06-25T10:33:48.296Z,1016.53
2018-06-25T10:34:48.314Z,1016.39
2018-06-25T10:35:48.231Z,1016.47
2018-06-25T10:36:48.222Z,1016.47
2018-06-25T10:37:48.168Z,1016.46
2018-06-25T10:38:48.138Z,1016.42
2018-06-25T10:39:48.112Z,1016.41
2018-06-25T10:40:48.083Z,1016.45
2018-06-25T10:41:48.048Z,1016.45
2018-06-25T10:42:48.021Z,1016.43
2018-06-25T10:43:47.994Z,1016.43
2018-06-25T10:44:47.963Z,1016.41
2018-06-25T10:45:47.933Z,1016.43
2018-06-25T10:46:47.905Z,1016.42
2018-06-25T10:47:47.890Z,1016.44
2018-06-25T10:48:47.848Z,1016.46
2018-06-25T10:49:47.815Z,1016.47
2018-06-25T10:50:47.786Z,1016.49
2018-06-25T10:51:47.759Z,1016.41
2018-06-25T10:52:47.736Z,1016.40
2018-06-25T10:53:47.697Z,1016.45
2018-06-25T10:54:47.670Z,1016.43
2018-06-25T10:55:47.639Z,1016.45
2018-06-25T10:56:47.611Z,1016.36
2018-06-25T10:57:47.580Z,1016.45
2018-06-25T10:58:47.567Z,1016.46
2018-06-25T10:59:47.745Z,1016.43
2018-06-25T11:00:47.488Z,1016.43
2018-06-25T11:01:47.471Z,1016.43
2018-06-25T11:02:47.433Z,1016.45
2018-06-25T11:03:47.403Z,1016.42
2018-06-25T11:04:47.396Z,1016.42
2018-06-25T11:05:47.361Z,1016.34
2018-06-25T11:06:47.307Z,1016.40
2018-06-25T11:07:47.331Z,1016.37
2018-06-25T11:08:47.253Z,1016.42
2018-06-25T11:09:47.223Z,1016.44
2018-06-25T11:10:47.200Z,1016.37
2018-06-25T11:11:47.167Z,1016.36
2018-06-25T11:12:47.158Z,1016.38
2018-06-25T11:13:47.106Z,1016.37
2018-06-25T11:14:47.080Z,1016.43
2018-06-25T11:15:47.061Z,1016.43
2018-06-25T11:16:47.020Z,1016.35
2018-06-25T11:17:46.992Z,1016.36
2018-06-25T11:18:46.965Z,1016.39
2018-06-25T11:19:46.934Z,1016.33
2018-06-25T11:20:46.905Z,1016.35
2018-06-25T11:21:46.893Z,1016.33
2018-06-25T11:22:46.865Z,1016.37
2018-06-25T11:23:46.813Z,1016.36
2018-06-25T11:24:46.792Z,1016.34
2018-06-25T11:25:46.756Z,1016.30
2018-06-25T11:26:46.778Z,1016.30
2018-06-25T11:27:46.787Z,1016.36
2018-06-25T11:28:46.675Z,1016.32
2018-06-25T11:29:46.640Z,1016.31
2018-06-25T11:30:46.611Z,1016.33
2018-06-25T11:31:46.583Z,1016.24
2018-06-25T11:32:46.558Z,1016.29
2018-06-25T11:33:46.525Z,1016.25
2018-06-25T11:34:46.498Z,1016.25
2018-06-25T11:35:46.471Z,1016.22
2018-06-25T11:36:46.441Z,1016.21
2018-06-25T11:37:46.434Z,1016.25
2018-06-25T11:38:46.377Z,1016.24
2018-06-25T11:39:46.355Z,1016.27
2018-06-25T11:40:46.327Z,1016.26
2018-06-25T11:41:46.390Z,1016.19
2018-06-25T11:42:46.268Z,1016.25
2018-06-25T11:43:46.261Z,1016.24
2018-06-25T11:44:46.228Z,1016.20
2018-06-25T11:45:46.187Z,1016.20
2018-06-25T11:46:46.149Z,1016.17
2018-06-25T11:47:46.148Z,1016.22
2018-06-25T11:48:46.098Z,1016.20
2018-06-25T11:49:46.069Z,1016.21
2018-06-25T11:50:46.049Z,1016.21
2018-06-25T11:51:46.036Z,1016.25
2018-06-25T11:52:45.988Z,1016.25
2018-06-25T11:53:45.960Z,1016.18
2018-06-25T11:54:45.926Z,1016.28
2018-06-25T11:55:45.904Z,1016.27
2018-06-25T11:56:45.890Z,1016.28
2018-06-25T11:57:45.841Z,1016.27
2018-06-25T11:58:45.814Z,1016.27
2018-06-25T11:59:45.784Z,1016.26
2018-06-25T12:00:45.755Z,1016.28
2018-06-25T12:01:45.793Z,1016.22
2018-06-25T12:02:45.881Z,1016.32
2018-06-25T12:03:45.683Z,1016.31
2018-06-25T12:04:45.639Z,1016.35